createdAt,value
2023-03-29T00:00:44.856Z,1.25
2023-03-29T00:03:49.878Z,1.40
2023-03-29T00:06:53.291Z,2.50
2023-03-29T00:09:57.989Z,2.05
2023-03-29T00:13:01.686Z,1.10
2023-03-29T00:16:05.224Z,1.50
2023-03-29T00:19:10.865Z,1.55
2023-03-29T00:22:14.554Z,1.42
2023-03-29T00:25:17.894Z,1.70
2023-03-29T00:28:21.316Z,1.60
2023-03-29T00:31:24.930Z,1.35
2023-03-29T00:34:31.858Z,1.33
2023-03-29T00:37:35.210Z,1.40
2023-03-29T00:40:42.870Z,0.88
2023-03-29T00:43:53.792Z,1.25
2023-03-29T00:46:57.162Z,1.38
2023-03-29T00:50:03.621Z,1.52
2023-03-29T00:53:09.042Z,1.00
2023-03-29T00:56:15.523Z,1.08
2023-03-29T00:59:20.169Z,1.40
2023-03-29T01:02:25.876Z,1.70
2023-03-29T01:05:32.779Z,1.27
2023-03-29T01:08:37.469Z,1.20
2023-03-29T01:11:42.710Z,1.20
2023-03-29T01:14:47.678Z,1.63
2023-03-29T01:17:53.681Z,1.52
2023-03-29T01:21:05.237Z,1.30
2023-03-29T01:24:16.211Z,1.55
2023-03-29T01:27:25.371Z,1.70
2023-03-29T01:30:32.039Z,1.60
2023-03-29T01:33:37.873Z,1.67
2023-03-29T01:36:43.781Z,1.58
2023-03-29T01:39:47.810Z,1.48
2023-03-29T01:42:54.032Z,1.67
2023-03-29T01:46:02.942Z,1.55
2023-03-29T01:49:11.148Z,1.30
2023-03-29T01:52:16.934Z,1.15
2023-03-29T01:55:27.005Z,1.00
2023-03-29T01:58:34.129Z,1.52
2023-03-29T02:01:40.560Z,1.80
2023-03-29T02:04:48.897Z,1.70
2023-03-29T02:07:53.234Z,1.50
2023-03-29T02:10:56.691Z,1.90
2023-03-29T02:14:05.692Z,1.48
2023-03-29T02:17:20.159Z,1.70
2023-03-29T02:20:26.483Z,1.58
2023-03-29T02:23:34.087Z,1.70
2023-03-29T02:26:37.396Z,1.60
2023-03-29T02:29:40.825Z,1.48
2023-03-29T02:32:50.110Z,1.58
2023-03-29T02:35:55.026Z,1.45
2023-03-29T02:39:00.815Z,1.80
2023-03-29T02:42:04.847Z,1.77
2023-03-29T02:45:10.429Z,1.73
2023-03-29T02:48:19.889Z,1.92
2023-03-29T02:51:25.400Z,1.70
2023-03-29T02:54:31.419Z,1.63
2023-03-29T02:57:38.008Z,1.52
2023-03-29T03:00:44.611Z,1.27
2023-03-29T03:03:50.767Z,1.38
2023-03-29T03:06:57.025Z,1.65
2023-03-29T03:10:00.461Z,1.25
2023-03-29T03:13:03.967Z,1.73
2023-03-29T03:16:09.492Z,1.65
2023-03-29T03:19:15.849Z,1.42
2023-03-29T03:22:20.901Z,1.38
2023-03-29T03:25:24.250Z,1.55
2023-03-29T03:28:28.241Z,1.55
2023-03-29T03:31:33.461Z,1.30
2023-03-29T03:34:48.190Z,1.50
2023-03-29T03:37:53.890Z,1.45
2023-03-29T03:40:57.842Z,1.80
2023-03-29T03:44:01.717Z,1.55
2023-03-29T03:47:06.498Z,1.60
2023-03-29T03:50:13.676Z,1.65
2023-03-29T03:53:17.984Z,1.77
2023-03-29T03:56:40.175Z,1.98
2023-03-29T03:59:49.957Z,1.15
2023-03-29T04:03:02.195Z,1.38
2023-03-29T04:06:07.551Z,1.48
2023-03-29T04:09:31.103Z,1.35
2023-03-29T04:12:48.798Z,1.20
2023-03-29T04:15:54.069Z,1.40
2023-03-29T04:18:57.656Z,2.15
2023-03-29T04:22:02.540Z,1.52
2023-03-29T04:25:06.368Z,1.42
2023-03-29T04:28:26.291Z,1.38
2023-03-29T04:31:52.494Z,1.35
2023-03-29T04:35:06.230Z,1.30
2023-03-29T04:38:11.603Z,1.33
2023-03-29T04:41:16.194Z,1.83
2023-03-29T04:44:41.428Z,1.80
2023-03-29T04:47:46.219Z,1.60
2023-03-29T04:50:54.642Z,1.85
2023-03-29T04:54:00.253Z,1.88
2023-03-29T04:57:03.973Z,1.33
2023-03-29T05:00:27.486Z,1.63
2023-03-29T05:03:31.281Z,1.75
2023-03-29T05:06:45.986Z,1.48
2023-03-29T05:09:50.758Z,1.85
2023-03-29T05:12:54.649Z,1.85
2023-03-29T05:16:00.540Z,1.98
2023-03-29T05:19:04.148Z,2.08
2023-03-29T05:22:09.796Z,2.33
2023-03-29T05:25:17.343Z,2.45
2023-03-29T05:28:20.834Z,2.35
2023-03-29T05:31:24.738Z,1.85
2023-03-29T05:34:32.011Z,1.88
2023-03-29T05:37:38.907Z,2.35
2023-03-29T05:40:44.780Z,2.38
2023-03-29T05:44:07.294Z,1.67
2023-03-29T05:47:12.021Z,2.28
2023-03-29T05:50:16.146Z,2.70
2023-03-29T05:53:19.878Z,2.08
2023-03-29T05:56:24.999Z,1.90
2023-03-29T05:59:29.659Z,1.90
2023-03-29T06:02:33.571Z,1.85
2023-03-29T06:05:37.414Z,2.22
2023-03-29T06:08:43.054Z,1.98
2023-03-29T06:12:01.743Z,1.98
2023-03-29T06:15:17.670Z,2.17
2023-03-29T06:18:24.927Z,1.88
2023-03-29T06:21:31.041Z,2.10
2023-03-29T06:24:35.021Z,2.35
2023-03-29T06:27:47.752Z,1.73
2023-03-29T06:30:56.121Z,2.45
2023-03-29T06:34:04.485Z,1.98
2023-03-29T06:37:42.701Z,2.10
2023-03-29T06:41:02.198Z,2.28
2023-03-29T06:44:15.250Z,1.83
2023-03-29T06:47:36.351Z,2.33
2023-03-29T06:50:40.114Z,2.45
2023-03-29T06:53:46.925Z,2.05
2023-03-29T06:56:51.076Z,1.90
2023-03-29T06:59:58.512Z,2.08
2023-03-29T07:03:28.709Z,1.67
2023-03-29T07:06:32.350Z,2.40
2023-03-29T07:09:39.881Z,2.35
2023-03-29T07:13:08.661Z,1.90
2023-03-29T07:16:14.277Z,1.92
2023-03-29T07:19:44.145Z,2.55
2023-03-29T07:23:06.010Z,2.60
2023-03-29T07:26:10.346Z,2.35
2023-03-29T07:29:16.216Z,2.63
2023-03-29T07:32:21.726Z,2.05
2023-03-29T07:35:33.020Z,2.40
2023-03-29T07:38:37.784Z,2.78
2023-03-29T07:41:48.112Z,2.35
2023-03-29T07:44:51.516Z,2.13
2023-03-29T07:47:57.598Z,2.10
2023-03-29T07:51:03.132Z,1.85
2023-03-29T07:54:15.140Z,2.65
2023-03-29T07:57:32.790Z,2.65
2023-03-29T08:00:36.769Z,2.38
2023-03-29T08:04:01.840Z,2.35
2023-03-29T08:07:25.819Z,2.50
2023-03-29T08:10:48.049Z,2.13
2023-03-29T08:14:07.269Z,1.77
2023-03-29T08:17:28.324Z,2.35
2023-03-29T08:20:33.672Z,1.90
2023-03-29T08:23:41.032Z,1.85
2023-03-29T08:26:50.502Z,1.92
2023-03-29T08:29:56.886Z,2.38
2023-03-29T08:33:02.132Z,2.22
2023-03-29T08:36:09.164Z,1.90
2023-03-29T08:39:17.859Z,2.00
2023-03-29T08:42:46.390Z,2.10
2023-03-29T08:45:55.542Z,1.85
2023-03-29T08:49:04.179Z,2.08
2023-03-29T08:52:17.086Z,2.05
2023-03-29T08:55:28.515Z,2.20
2023-03-29T08:58:51.567Z,1.63
2023-03-29T09:02:00.120Z,1.95
2023-03-29T09:05:07.479Z,2.05
2023-03-29T09:08:22.853Z,1.77
2023-03-29T09:11:45.800Z,1.92
2023-03-29T09:14:59.377Z,1.80
2023-03-29T09:18:09.816Z,2.10
2023-03-29T09:21:18.421Z,1.80
2023-03-29T09:24:30.656Z,1.75
2023-03-29T09:27:46.752Z,1.55
2023-03-29T09:30:59.895Z,2.20
2023-03-29T09:34:06.976Z,1.85
2023-03-29T09:37:31.408Z,2.42
2023-03-29T09:40:40.126Z,2.10
2023-03-29T09:43:55.765Z,2.03
2023-03-29T09:47:05.129Z,1.95
2023-03-29T09:50:27.246Z,1.80
2023-03-29T09:53:35.397Z,1.58
2023-03-29T09:57:06.958Z,1.80
2023-03-29T10:00:10.807Z,2.08
2023-03-29T10:03:23.742Z,2.03
2023-03-29T10:06:35.501Z,1.88
2023-03-29T10:09:39.434Z,1.77
2023-03-29T10:12:54.964Z,1.73
2023-03-29T10:16:09.201Z,1.50
2023-03-29T10:19:25.736Z,2.28
2023-03-29T10:22:29.993Z,2.33
2023-03-29T10:25:34.270Z,1.77
2023-03-29T10:28:39.943Z,2.30
2023-03-29T10:32:03.325Z,2.38
2023-03-29T10:35:10.694Z,2.03
2023-03-29T10:38:15.762Z,2.25
2023-03-29T10:41:19.987Z,1.77
2023-03-29T10:44:32.295Z,2.05
2023-03-29T10:47:36.681Z,2.38
2023-03-29T10:50:40.357Z,2.03
2023-03-29T10:53:43.828Z,2.13
2023-03-29T10:56:50.759Z,2.50
2023-03-29T10:59:59.819Z,2.30
2023-03-29T11:03:24.093Z,1.83
2023-03-29T11:06:31.844Z,2.05
2023-03-29T11:09:42.025Z,2.17
2023-03-29T11:12:49.103Z,2.50
2023-03-29T11:15:58.915Z,2.22
2023-03-29T11:19:13.115Z,1.98
2023-03-29T11:22:20.587Z,2.22
2023-03-29T11:25:30.952Z,2.40
2023-03-29T11:28:38.766Z,2.65
2023-03-29T11:31:47.472Z,2.30
2023-03-29T11:34:58.557Z,2.42
2023-03-29T11:38:05.336Z,2.28
2023-03-29T11:41:13.829Z,2.47
2023-03-29T11:44:18.825Z,2.67
2023-03-29T11:47:26.470Z,2.22
2023-03-29T11:50:35.338Z,1.98
2023-03-29T11:53:43.590Z,1.90
2023-03-29T11:56:49.584Z,2.30
2023-03-29T11:59:56.273Z,2.22
2023-03-29T12:03:03.331Z,2.47
2023-03-29T12:06:10.460Z,2.20
2023-03-29T12:09:17.009Z,2.17
2023-03-29T12:12:25.001Z,2.50
2023-03-29T12:15:31.668Z,1.95
2023-03-29T12:18:38.359Z,1.80
2023-03-29T12:21:42.851Z,2.10
2023-03-29T12:24:49.017Z,2.20
2023-03-29T12:27:57.741Z,2.38
2023-03-29T12:31:07.496Z,3.00
2023-03-29T12:34:17.517Z,2.15
2023-03-29T12:37:42.305Z,2.55
2023-03-29T12:41:11.938Z,2.63
2023-03-29T12:44:34.859Z,2.08
2023-03-29T12:48:00.659Z,2.47
2023-03-29T12:51:07.601Z,2.58
2023-03-29T12:54:14.069Z,2.10
2023-03-29T12:57:21.593Z,1.80
2023-03-29T13:00:28.721Z,2.40
2023-03-29T13:03:37.689Z,2.40
2023-03-29T13:07:02.812Z,1.95
2023-03-29T13:10:09.953Z,2.25
2023-03-29T13:13:16.629Z,2.33
2023-03-29T13:16:21.200Z,2.05
2023-03-29T13:19:31.901Z,2.20
2023-03-29T13:22:41.536Z,1.95
2023-03-29T13:25:52.547Z,2.38
2023-03-29T13:29:07.206Z,2.45
2023-03-29T13:32:20.710Z,2.88
2023-03-29T13:35:30.211Z,1.95
2023-03-29T13:38:46.195Z,2.47
2023-03-29T13:41:50.567Z,2.10
2023-03-29T13:44:54.549Z,2.63
2023-03-29T13:48:05.684Z,2.78
2023-03-29T13:51:21.718Z,2.38
2023-03-29T13:58:09.777Z,2.75
2023-03-29T14:01:15.134Z,2.08
2023-03-29T14:04:23.853Z,2.85
2023-03-29T14:07:29.684Z,2.53
2023-03-29T14:10:36.939Z,2.65
2023-03-29T14:13:40.937Z,2.28
2023-03-29T14:16:44.638Z,2.35
2023-03-29T14:19:49.163Z,2.53
2023-03-29T14:23:02.150Z,1.98
2023-03-29T14:26:12.472Z,2.13
2023-03-29T14:29:18.024Z,2.28
2023-03-29T14:32:22.425Z,2.28
2023-03-29T14:35:30.139Z,2.55
2023-03-29T14:38:34.256Z,2.17
2023-03-29T14:41:40.021Z,2.15
2023-03-29T14:44:44.677Z,2.13
2023-03-29T14:47:48.645Z,2.13
2023-03-29T14:50:52.673Z,2.17
2023-03-29T14:54:01.655Z,2.10
2023-03-29T14:57:08.086Z,2.05
2023-03-29T15:00:21.200Z,2.45
2023-03-29T15:03:26.966Z,2.28
2023-03-29T15:06:31.581Z,2.00
2023-03-29T15:09:36.163Z,2.30
2023-03-29T15:12:43.673Z,2.22
2023-03-29T15:15:47.535Z,1.95
2023-03-29T15:18:52.342Z,2.28
2023-03-29T15:21:56.069Z,2.42
2023-03-29T15:24:59.878Z,2.22
2023-03-29T15:28:04.668Z,2.35
2023-03-29T15:31:12.312Z,2.15
2023-03-29T15:34:26.021Z,2.47
2023-03-29T15:37:29.640Z,2.47
2023-03-29T15:40:33.141Z,2.58
2023-03-29T15:43:37.927Z,2.40
2023-03-29T15:46:41.700Z,2.40
2023-03-29T15:49:48.123Z,2.55
2023-03-29T15:52:59.978Z,2.63
2023-03-29T15:56:17.009Z,2.33
2023-03-29T15:59:21.830Z,2.70
2023-03-29T16:02:26.264Z,3.08
2023-03-29T16:05:29.930Z,2.53
2023-03-29T16:08:33.950Z,2.55
2023-03-29T16:11:40.503Z,3.15
2023-03-29T16:14:47.317Z,2.85
2023-03-29T16:17:50.816Z,2.60
2023-03-29T16:20:56.849Z,3.83
2023-03-29T16:24:01.997Z,3.72
2023-03-29T16:27:06.107Z,4.18
2023-03-29T16:30:12.234Z,3.45
2023-03-29T16:33:15.922Z,4.93
2023-03-29T16:36:19.568Z,4.18
2023-03-29T16:39:51.828Z,3.58
2023-03-29T16:43:39.214Z,4.50
2023-03-29T16:47:42.058Z,4.05
2023-03-29T16:55:59.054Z,6.05
2023-03-29T16:59:35.862Z,4.63
2023-03-29T17:02:53.716Z,3.80
2023-03-29T17:10:40.048Z,3.72
2023-03-29T17:14:14.387Z,4.07
2023-03-29T17:18:02.708Z,3.83
2023-03-29T17:21:31.195Z,3.95
2023-03-29T17:24:54.318Z,3.75
2023-03-29T17:28:34.533Z,3.38
2023-03-29T17:32:03.222Z,3.38
2023-03-29T17:35:23.471Z,3.70
2023-03-29T17:39:20.606Z,3.20
2023-03-29T17:43:15.895Z,3.35
2023-03-29T17:47:03.575Z,3.78
2023-03-29T17:51:08.076Z,3.53
2023-03-29T17:54:55.031Z,3.45
2023-03-29T17:58:25.046Z,3.40
2023-03-29T18:02:26.573Z,3.08
2023-03-29T18:06:05.420Z,3.17
2023-03-29T18:09:57.101Z,4.07
2023-03-29T18:13:49.516Z,4.32
2023-03-29T18:17:01.263Z,3.83
2023-03-29T18:20:56.321Z,4.07
2023-03-29T18:24:16.699Z,3.50
2023-03-29T18:31:19.137Z,5.28
2023-03-29T18:35:06.966Z,4.03
2023-03-29T18:38:43.492Z,3.95
2023-03-29T18:42:12.867Z,4.20
2023-03-29T18:45:16.952Z,3.42
2023-03-29T18:48:30.120Z,3.83
2023-03-29T18:51:38.202Z,4.05
2023-03-29T18:54:42.701Z,3.35
2023-03-29T18:57:48.576Z,3.88
2023-03-29T19:00:52.529Z,3.45
2023-03-29T19:03:59.881Z,3.67
2023-03-29T19:07:05.228Z,3.47
2023-03-29T19:10:12.237Z,3.53
2023-03-29T19:13:23.314Z,3.28
2023-03-29T19:16:35.400Z,3.17
2023-03-29T19:19:46.210Z,4.00
2023-03-29T19:22:50.044Z,3.35
2023-03-29T19:25:54.308Z,3.78
2023-03-29T19:28:59.440Z,2.95
2023-03-29T19:32:03.830Z,3.58
2023-03-29T19:35:13.177Z,3.03
2023-03-29T19:38:16.767Z,2.75
2023-03-29T19:41:24.285Z,3.42
2023-03-29T19:44:29.192Z,3.28
2023-03-29T19:47:33.669Z,3.08
2023-03-29T19:50:40.685Z,3.17
2023-03-29T19:53:44.322Z,2.63
2023-03-29T19:56:49.558Z,3.08
2023-03-29T19:59:54.860Z,3.10
2023-03-29T20:02:58.528Z,2.92
2023-03-29T20:06:03.869Z,3.38
2023-03-29T20:09:11.253Z,3.20
2023-03-29T20:12:17.429Z,3.67
2023-03-29T20:15:21.098Z,2.80
2023-03-29T20:18:24.731Z,2.83
2023-03-29T20:21:30.501Z,3.38
2023-03-29T20:24:36.005Z,3.22
2023-03-29T20:27:41.398Z,3.40
2023-03-29T20:30:53.057Z,3.22
2023-03-29T20:34:12.053Z,3.13
2023-03-29T20:37:17.070Z,3.05
2023-03-29T20:40:23.916Z,3.17
2023-03-29T20:43:27.698Z,3.03
2023-03-29T20:46:37.624Z,3.47
2023-03-29T20:49:45.763Z,2.88
2023-03-29T20:52:54.626Z,3.25
2023-03-29T20:56:00.304Z,3.03
2023-03-29T20:59:05.858Z,3.42
2023-03-29T21:02:09.993Z,3.97
2023-03-29T21:05:13.706Z,4.50
2023-03-29T21:08:18.628Z,4.60
2023-03-29T21:11:23.414Z,4.18
2023-03-29T21:14:27.067Z,3.83
2023-03-29T21:17:34.891Z,4.28
2023-03-29T21:20:39.096Z,3.28
2023-03-29T21:23:44.369Z,3.75
2023-03-29T21:26:50.574Z,4.03
2023-03-29T21:29:56.103Z,3.78
2023-03-29T21:33:03.847Z,3.28
2023-03-29T21:36:09.989Z,3.92
2023-03-29T21:39:19.705Z,3.38
2023-03-29T21:42:25.760Z,4.10
2023-03-29T21:45:29.614Z,4.18
2023-03-29T21:48:36.351Z,3.53
2023-03-29T21:51:41.436Z,3.80
2023-03-29T21:54:46.585Z,3.35
2023-03-29T21:57:50.379Z,3.47
2023-03-29T22:00:54.371Z,3.17
2023-03-29T22:03:58.207Z,3.88
2023-03-29T22:07:05.270Z,3.90
2023-03-29T22:10:14.723Z,3.55
2023-03-29T22:13:23.205Z,3.70
2023-03-29T22:16:31.233Z,3.97
2023-03-29T22:19:38.994Z,3.97
2023-03-29T22:22:46.000Z,3.90
2023-03-29T22:25:51.483Z,4.00
2023-03-29T22:28:56.721Z,4.22
2023-03-29T22:32:01.007Z,3.72
2023-03-29T22:35:04.996Z,3.70
2023-03-29T22:38:09.106Z,4.10
2023-03-29T22:41:16.961Z,3.63
2023-03-29T22:44:20.891Z,3.95
2023-03-29T22:47:24.569Z,4.05
2023-03-29T22:50:28.379Z,4.47
2023-03-29T22:53:33.510Z,4.70
2023-03-29T22:56:39.693Z,4.22
2023-03-29T22:59:43.338Z,4.68
2023-03-29T23:02:48.800Z,4.65
2023-03-29T23:05:52.463Z,5.18
2023-03-29T23:08:58.600Z,4.25
2023-03-29T23:12:06.802Z,4.40
2023-03-29T23:15:13.761Z,3.97
2023-03-29T23:18:18.340Z,4.65
2023-03-29T23:21:22.062Z,5.40
2023-03-29T23:24:25.716Z,4.90
2023-03-29T23:27:32.826Z,4.80
2023-03-29T23:30:42.620Z,5.75
2023-03-29T23:33:46.602Z,4.70
2023-03-29T23:36:50.326Z,4.93
2023-03-29T23:39:53.960Z,4.60
2023-03-29T23:43:02.294Z,4.95
2023-03-29T23:46:10.784Z,5.28
2023-03-29T23:49:17.246Z,5.25
2023-03-29T23:52:20.926Z,4.85
2023-03-29T23:55:24.435Z,4.95
2023-03-29T23:58:29.625Z,5.53
